KSGH/SGH METAR and TAF weather

Enter ICAO airport designator
Station Type Date Time Source
KSGH METAR 2021/05/15 01:56 UTC NOAA

KSGH 150156Z AUTO 00000KT 10SM CLR 13/02 A3027 RMK AO2 SLP252 T01330022


Station Type Date Time Source
KSGH Decoded METAR 2021/05/15 01:56 UTC NOAA

Springfield, Springfield-Beckley Municipal Airport, OH, United States (KSGH) 39-50-25N 083-50-24W
May 14, 2021 - 09:56 PM EDT / 2021.05.15 0156 UTC
Wind: Calm:0
Visibility: 10 mile(s):0
Sky conditions: clear
Temperature: 55.9 F (13.3 C)
Dew Point: 36.0 F (2.2 C)
Relative Humidity: 46%
Pressure (altimeter): 30.27 in. Hg (1025 hPa)
ob: KSGH 150156Z AUTO 00000KT 10SM CLR 13/02 A3027 RMK AO2 SLP252 T01330022
cycle: 2

Station Type Date Time Source
KSGH TAF UTC NOAA

Error!

Example: see airport list